sensor_id;sensor_type;location;lat;lon;timestamp;pressure;altitude;pressure_sealevel;temperature;humidity
12949;BME280;6539;49.476;8.484;2022-12-18T00:01:33;101891.84;;;-1.95;65.44
12949;BME280;6539;49.476;8.484;2022-12-18T00:04:12;101887.59;;;-2.01;65.83
12949;BME280;6539;49.476;8.484;2022-12-18T00:06:41;101898.06;;;-1.99;65.66
12949;BME280;6539;49.476;8.484;2022-12-18T00:09:06;101894.88;;;-2.01;65.71
12949;BME280;6539;49.476;8.484;2022-12-18T00:11:32;101899.47;;;-2.07;65.19
12949;BME280;6539;49.476;8.484;2022-12-18T00:14:00;101894.59;;;-2.05;65.00
12949;BME280;6539;49.476;8.484;2022-12-18T00:16:28;101895.16;;;-2.03;64.75
12949;BME280;6539;49.476;8.484;2022-12-18T00:18:58;101895.94;;;-2.02;64.83
12949;BME280;6539;49.476;8.484;2022-12-18T00:21:28;101895.50;;;-2.09;64.28
12949;BME280;6539;49.476;8.484;2022-12-18T00:23:54;101896.00;;;-2.07;64.23
12949;BME280;6539;49.476;8.484;2022-12-18T00:26:29;101893.34;;;-2.12;64.25
12949;BME280;6539;49.476;8.484;2022-12-18T00:29:12;101888.00;;;-2.17;63.71
12949;BME280;6539;49.476;8.484;2022-12-18T00:31:42;101898.59;;;-2.26;64.29
12949;BME280;6539;49.476;8.484;2022-12-18T00:34:11;101894.75;;;-2.20;64.36
12949;BME280;6539;49.476;8.484;2022-12-18T00:36:40;101900.22;;;-2.30;64.61
12949;BME280;6539;49.476;8.484;2022-12-18T00:39:10;101900.84;;;-2.38;64.79
12949;BME280;6539;49.476;8.484;2022-12-18T00:41:41;101909.97;;;-2.39;65.41
12949;BME280;6539;49.476;8.484;2022-12-18T00:44:25;101907.81;;;-2.37;65.48
12949;BME280;6539;49.476;8.484;2022-12-18T00:46:51;101901.88;;;-2.34;65.31
12949;BME280;6539;49.476;8.484;2022-12-18T00:49:19;101912.66;;;-2.34;65.16
12949;BME280;6539;49.476;8.484;2022-12-18T00:51:48;101909.72;;;-2.38;65.17
12949;BME280;6539;49.476;8.484;2022-12-18T00:54:16;101915.56;;;-2.31;64.75
12949;BME280;6539;49.476;8.484;2022-12-18T00:56:43;101917.72;;;-2.33;64.39
12949;BME280;6539;49.476;8.484;2022-12-18T00:59:09;101918.03;;;-2.34;64.23
12949;BME280;6539;49.476;8.484;2022-12-18T01:01:34;101922.84;;;-2.31;64.09
12949;BME280;6539;49.476;8.484;2022-12-18T01:04:03;101914.81;;;-2.36;63.73
12949;BME280;6539;49.476;8.484;2022-12-18T01:06:32;101899.00;;;-2.43;63.96
12949;BME280;6539;49.476;8.484;2022-12-18T01:08:57;101891.25;;;-2.49;63.86
12949;BME280;6539;49.476;8.484;2022-12-18T01:11:24;101895.28;;;-2.47;63.70
12949;BME280;6539;49.476;8.484;2022-12-18T01:13:51;101896.13;;;-2.51;63.86
12949;BME280;6539;49.476;8.484;2022-12-18T01:16:18;101901.56;;;-2.61;64.20
12949;BME280;6539;49.476;8.484;2022-12-18T01:18:47;101900.44;;;-2.55;64.01
12949;BME280;6539;49.476;8.484;2022-12-18T01:21:16;101895.06;;;-2.55;63.77
12949;BME280;6539;49.476;8.484;2022-12-18T01:23:45;101894.25;;;-2.56;64.30
12949;BME280;6539;49.476;8.484;2022-12-18T01:26:17;101896.25;;;-2.71;64.17
12949;BME280;6539;49.476;8.484;2022-12-18T01:28:45;101901.69;;;-2.76;64.62
12949;BME280;6539;49.476;8.484;2022-12-18T01:31:19;101915.34;;;-2.73;64.64
12949;BME280;6539;49.476;8.484;2022-12-18T01:33:48;101909.69;;;-2.71;64.81
12949;BME280;6539;49.476;8.484;2022-12-18T01:36:23;101920.19;;;-2.70;64.97
12949;BME280;6539;49.476;8.484;2022-12-18T01:38:50;101910.22;;;-2.69;65.04
12949;BME280;6539;49.476;8.484;2022-12-18T01:41:20;101907.00;;;-2.71;64.70
12949;BME280;6539;49.476;8.484;2022-12-18T01:43:56;101906.47;;;-2.68;64.97
12949;BME280;6539;49.476;8.484;2022-12-18T01:46:26;101898.69;;;-2.70;65.26
12949;BME280;6539;49.476;8.484;2022-12-18T01:49:00;101900.53;;;-2.65;65.53
12949;BME280;6539;49.476;8.484;2022-12-18T01:51:29;101908.03;;;-2.67;65.43
12949;BME280;6539;49.476;8.484;2022-12-18T01:53:56;101905.34;;;-2.62;65.48
12949;BME280;6539;49.476;8.484;2022-12-18T01:56:23;101899.97;;;-2.62;66.11
12949;BME280;6539;49.476;8.484;2022-12-18T01:59:05;101898.06;;;-2.57;66.02
12949;BME280;6539;49.476;8.484;2022-12-18T02:01:36;101903.16;;;-2.60;65.10
12949;BME280;6539;49.476;8.484;2022-12-18T02:04:26;101905.66;;;-2.69;65.48
12949;BME280;6539;49.476;8.484;2022-12-18T02:07:37;101904.84;;;-2.69;65.53
12949;BME280;6539;49.476;8.484;2022-12-18T02:11:05;101915.03;;;-2.66;65.77
12949;BME280;6539;49.476;8.484;2022-12-18T02:13:36;101907.47;;;-2.59;65.65
12949;BME280;6539;49.476;8.484;2022-12-18T02:16:26;101919.25;;;-2.55;65.55
12949;BME280;6539;49.476;8.484;2022-12-18T02:19:01;101928.13;;;-2.55;65.34
12949;BME280;6539;49.476;8.484;2022-12-18T02:27:27;101925.19;;;-2.58;64.89
12949;BME280;6539;49.476;8.484;2022-12-18T02:29:57;101917.66;;;-2.56;64.62
12949;BME280;6539;49.476;8.484;2022-12-18T02:32:32;101911.75;;;-2.58;64.55
12949;BME280;6539;49.476;8.484;2022-12-18T02:35:05;101905.34;;;-2.67;63.96
12949;BME280;6539;49.476;8.484;2022-12-18T02:37:39;101905.09;;;-2.66;64.09
12949;BME280;6539;49.476;8.484;2022-12-18T02:40:07;101906.75;;;-2.70;63.77
12949;BME280;6539;49.476;8.484;2022-12-18T02:42:34;101898.41;;;-2.73;64.35
12949;BME280;6539;49.476;8.484;2022-12-18T02:44:59;101902.22;;;-2.74;64.49
12949;BME280;6539;49.476;8.484;2022-12-18T02:47:32;101903.25;;;-2.70;64.37
12949;BME280;6539;49.476;8.484;2022-12-18T03:02:16;101894.78;;;-2.87;64.16
12949;BME280;6539;49.476;8.484;2022-12-18T03:05:22;101910.59;;;-2.86;64.43
12949;BME280;6539;49.476;8.484;2022-12-18T03:08:18;101900.16;;;-2.92;64.40
12949;BME280;6539;49.476;8.484;2022-12-18T03:11:03;101900.75;;;-2.95;65.00
12949;BME280;6539;49.476;8.484;2022-12-18T03:13:43;101920.59;;;-2.96;65.23
12949;BME280;6539;49.476;8.484;2022-12-18T03:16:24;101906.41;;;-3.02;66.28
12949;BME280;6539;49.476;8.484;2022-12-18T03:19:08;101899.66;;;-2.99;66.15
12949;BME280;6539;49.476;8.484;2022-12-18T03:21:51;101880.03;;;-2.95;66.32
12949;BME280;6539;49.476;8.484;2022-12-18T03:24:26;101859.84;;;-2.87;66.35
12949;BME280;6539;49.476;8.484;2022-12-18T03:27:00;101857.66;;;-2.80;66.03
12949;BME280;6539;49.476;8.484;2022-12-18T03:29:46;101884.53;;;-2.80;65.89
12949;BME280;6539;49.476;8.484;2022-12-18T03:32:31;101911.31;;;-2.70;65.85
12949;BME280;6539;49.476;8.484;2022-12-18T03:35:04;101907.00;;;-2.71;65.81
12949;BME280;6539;49.476;8.484;2022-12-18T03:37:31;101906.22;;;-2.72;66.02
12949;BME280;6539;49.476;8.484;2022-12-18T03:39:57;101890.88;;;-2.71;66.12
12949;BME280;6539;49.476;8.484;2022-12-18T03:42:36;101893.53;;;-2.66;66.08
12949;BME280;6539;49.476;8.484;2022-12-18T03:45:34;101894.59;;;-2.67;65.80
12949;BME280;6539;49.476;8.484;2022-12-18T03:48:16;101902.16;;;-2.69;65.82
12949;BME280;6539;49.476;8.484;2022-12-18T03:51:02;101897.88;;;-2.70;66.25
12949;BME280;6539;49.476;8.484;2022-12-18T03:56:12;101909.69;;;-2.71;65.23
12949;BME280;6539;49.476;8.484;2022-12-18T03:58:41;101905.97;;;-2.75;64.67
12949;BME280;6539;49.476;8.484;2022-12-18T04:01:12;101906.56;;;-2.83;64.78
12949;BME280;6539;49.476;8.484;2022-12-18T04:03:40;101897.69;;;-2.84;64.76
12949;BME280;6539;49.476;8.484;2022-12-18T04:06:13;101895.81;;;-2.83;64.45
12949;BME280;6539;49.476;8.484;2022-12-18T04:08:42;101902.25;;;-2.84;64.24
12949;BME280;6539;49.476;8.484;2022-12-18T04:11:08;101906.78;;;-2.80;64.35
12949;BME280;6539;49.476;8.484;2022-12-18T04:13:38;101894.72;;;-2.82;64.29
12949;BME280;6539;49.476;8.484;2022-12-18T04:16:04;101892.69;;;-2.95;64.91
12949;BME280;6539;49.476;8.484;2022-12-18T04:18:32;101888.91;;;-2.99;65.21
12949;BME280;6539;49.476;8.484;2022-12-18T04:20:58;101893.50;;;-3.00;65.56
12949;BME280;6539;49.476;8.484;2022-12-18T04:23:29;101879.19;;;-2.90;65.56
12949;BME280;6539;49.476;8.484;2022-12-18T04:25:59;101881.34;;;-2.87;65.19
12949;BME280;6539;49.476;8.484;2022-12-18T04:28:25;101885.63;;;-2.86;64.79
12949;BME280;6539;49.476;8.484;2022-12-18T04:30:56;101877.31;;;-2.90;64.85
12949;BME280;6539;49.476;8.484;2022-12-18T04:33:22;101869.75;;;-2.83;65.03
12949;BME280;6539;49.476;8.484;2022-12-18T04:35:48;101875.69;;;-2.86;64.98
12949;BME280;6539;49.476;8.484;2022-12-18T04:38:16;101880.84;;;-2.94;65.45
12949;BME280;6539;49.476;8.484;2022-12-18T04:40:42;101882.97;;;-2.91;66.06
12949;BME280;6539;49.476;8.484;2022-12-18T04:43:11;101885.63;;;-2.86;65.77
12949;BME280;6539;49.476;8.484;2022-12-18T04:45:37;101871.66;;;-2.88;65.92
12949;BME280;6539;49.476;8.484;2022-12-18T04:48:03;101881.06;;;-2.86;65.75
12949;BME280;6539;49.476;8.484;2022-12-18T04:50:32;101878.91;;;-2.89;65.84
12949;BME280;6539;49.476;8.484;2022-12-18T04:53:00;101882.69;;;-2.90;65.96
12949;BME280;6539;49.476;8.484;2022-12-18T04:55:26;101892.91;;;-2.87;65.66
12949;BME280;6539;49.476;8.484;2022-12-18T04:57:55;101884.03;;;-2.92;65.69
12949;BME280;6539;49.476;8.484;2022-12-18T05:00:25;101887.25;;;-2.90;65.88
12949;BME280;6539;49.476;8.484;2022-12-18T05:02:50;101888.59;;;-2.88;65.73
12949;BME280;6539;49.476;8.484;2022-12-18T05:05:23;101895.84;;;-2.88;64.72
12949;BME280;6539;49.476;8.484;2022-12-18T05:07:49;101898.28;;;-2.92;65.13
12949;BME280;6539;49.476;8.484;2022-12-18T05:10:15;101902.63;;;-2.96;65.12
12949;BME280;6539;49.476;8.484;2022-12-18T05:12:41;101902.84;;;-2.92;65.16
12949;BME280;6539;49.476;8.484;2022-12-18T05:15:26;101900.34;;;-2.79;65.15
12949;BME280;6539;49.476;8.484;2022-12-18T05:17:54;101897.38;;;-2.77;64.96
12949;BME280;6539;49.476;8.484;2022-12-18T05:20:20;101897.97;;;-2.80;64.44
12949;BME280;6539;49.476;8.484;2022-12-18T05:22:46;101903.88;;;-2.83;64.70
12949;BME280;6539;49.476;8.484;2022-12-18T05:25:12;101901.78;;;-2.91;65.23
12949;BME280;6539;49.476;8.484;2022-12-18T05:27:41;101912.47;;;-2.81;64.99
12949;BME280;6539;49.476;8.484;2022-12-18T05:30:07;101909.31;;;-2.93;64.82
12949;BME280;6539;49.476;8.484;2022-12-18T05:32:36;101904.50;;;-3.01;64.66
12949;BME280;6539;49.476;8.484;2022-12-18T05:35:05;101899.97;;;-3.06;65.26
12949;BME280;6539;49.476;8.484;2022-12-18T05:37:34;101907.72;;;-2.99;65.40
12949;BME280;6539;49.476;8.484;2022-12-18T05:40:06;101906.16;;;-3.05;65.29
12949;BME280;6539;49.476;8.484;2022-12-18T05:42:34;101905.91;;;-3.09;65.14
12949;BME280;6539;49.476;8.484;2022-12-18T05:45:05;101903.47;;;-3.05;65.18
12949;BME280;6539;49.476;8.484;2022-12-18T05:47:35;101899.66;;;-2.99;65.01
12949;BME280;6539;49.476;8.484;2022-12-18T05:50:03;101888.97;;;-3.04;64.91
12949;BME280;6539;49.476;8.484;2022-12-18T05:52:34;101897.03;;;-3.04;65.18
12949;BME280;6539;49.476;8.484;2022-12-18T05:54:59;101891.16;;;-3.12;65.36
12949;BME280;6539;49.476;8.484;2022-12-18T05:57:25;101905.63;;;-3.08;65.20
12949;BME280;6539;49.476;8.484;2022-12-18T05:59:52;101899.19;;;-3.06;65.46
12949;BME280;6539;49.476;8.484;2022-12-18T06:02:20;101897.25;;;-3.01;65.10
12949;BME280;6539;49.476;8.484;2022-12-18T06:04:48;101905.09;;;-3.04;65.25
12949;BME280;6539;49.476;8.484;2022-12-18T06:07:14;101901.88;;;-3.06;65.55
12949;BME280;6539;49.476;8.484;2022-12-18T06:09:40;101903.69;;;-2.97;65.34
12949;BME280;6539;49.476;8.484;2022-12-18T06:12:06;101910.66;;;-2.96;65.47
12949;BME280;6539;49.476;8.484;2022-12-18T06:14:37;101909.56;;;-2.95;65.28
12949;BME280;6539;49.476;8.484;2022-12-18T06:17:07;101909.84;;;-2.91;65.57
12949;BME280;6539;49.476;8.484;2022-12-18T06:19:35;101913.59;;;-2.92;65.48
12949;BME280;6539;49.476;8.484;2022-12-18T06:22:04;101915.22;;;-2.91;65.48
12949;BME280;6539;49.476;8.484;2022-12-18T06:24:32;101917.31;;;-2.88;65.51
12949;BME280;6539;49.476;8.484;2022-12-18T06:27:00;101928.06;;;-2.88;65.38
12949;BME280;6539;49.476;8.484;2022-12-18T06:29:26;101924.28;;;-2.82;65.33
12949;BME280;6539;49.476;8.484;2022-12-18T06:31:52;101935.00;;;-2.82;65.18
12949;BME280;6539;49.476;8.484;2022-12-18T06:34:18;101928.88;;;-2.83;65.13
12949;BME280;6539;49.476;8.484;2022-12-18T06:36:44;101930.22;;;-2.85;64.97
12949;BME280;6539;49.476;8.484;2022-12-18T06:39:12;101924.56;;;-2.89;65.13
12949;BME280;6539;49.476;8.484;2022-12-18T06:41:38;101931.91;;;-2.99;65.14
12949;BME280;6539;49.476;8.484;2022-12-18T06:44:06;101936.72;;;-2.96;65.13
12949;BME280;6539;49.476;8.484;2022-12-18T06:46:32;101929.19;;;-2.94;65.09
12949;BME280;6539;49.476;8.484;2022-12-18T06:48:57;101945.84;;;-2.97;65.08
12949;BME280;6539;49.476;8.484;2022-12-18T06:51:26;101946.94;;;-2.98;65.06
12949;BME280;6539;49.476;8.484;2022-12-18T06:53:57;101944.03;;;-3.02;65.43
12949;BME280;6539;49.476;8.484;2022-12-18T06:56:25;101954.47;;;-2.95;65.37
12949;BME280;6539;49.476;8.484;2022-12-18T06:58:51;101954.47;;;-2.95;64.89
12949;BME280;6539;49.476;8.484;2022-12-18T07:01:19;101956.06;;;-2.94;65.00
12949;BME280;6539;49.476;8.484;2022-12-18T07:03:45;101957.16;;;-2.95;64.79
12949;BME280;6539;49.476;8.484;2022-12-18T07:06:19;101954.47;;;-2.95;64.81
12949;BME280;6539;49.476;8.484;2022-12-18T07:08:49;101955.53;;;-2.96;64.45
12949;BME280;6539;49.476;8.484;2022-12-18T07:11:17;101953.13;;;-2.98;64.66
12949;BME280;6539;49.476;8.484;2022-12-18T07:13:46;101964.66;;;-2.97;64.56
12949;BME280;6539;49.476;8.484;2022-12-18T07:16:18;101964.16;;;-3.04;64.13
12949;BME280;6539;49.476;8.484;2022-12-18T07:18:45;101965.22;;;-3.05;64.68
12949;BME280;6539;49.476;8.484;2022-12-18T07:21:17;101968.19;;;-3.07;64.72
12949;BME280;6539;49.476;8.484;2022-12-18T07:23:45;101964.41;;;-3.06;64.57
12949;BME280;6539;49.476;8.484;2022-12-18T07:26:18;101969.28;;;-3.08;64.49
12949;BME280;6539;49.476;8.484;2022-12-18T07:28:47;101973.63;;;-3.17;65.00
12949;BME280;6539;49.476;8.484;2022-12-18T07:31:20;101968.50;;;-3.14;65.06
12949;BME280;6539;49.476;8.484;2022-12-18T07:33:46;101969.56;;;-3.10;64.96
12949;BME280;6539;49.476;8.484;2022-12-18T07:36:13;101972.75;;;-3.08;64.97
12949;BME280;6539;49.476;8.484;2022-12-18T07:38:39;101967.41;;;-3.08;65.08
12949;BME280;6539;49.476;8.484;2022-12-18T07:41:12;101965.53;;;-3.12;65.33
12949;BME280;6539;49.476;8.484;2022-12-18T07:43:39;101970.31;;;-3.04;65.50
12949;BME280;6539;49.476;8.484;2022-12-18T07:46:06;101979.69;;;-2.96;65.20
12949;BME280;6539;49.476;8.484;2022-12-18T07:48:37;101959.56;;;-2.99;64.83
12949;BME280;6539;49.476;8.484;2022-12-18T07:51:06;101970.56;;;-2.95;64.81
12949;BME280;6539;49.476;8.484;2022-12-18T07:53:35;101968.91;;;-2.86;64.14
12949;BME280;6539;49.476;8.484;2022-12-18T07:56:07;101979.63;;;-2.86;64.04
12949;BME280;6539;49.476;8.484;2022-12-18T07:58:37;101984.47;;;-2.83;63.75
12949;BME280;6539;49.476;8.484;2022-12-18T08:01:09;101983.13;;;-2.81;63.49
12949;BME280;6539;49.476;8.484;2022-12-18T08:03:35;101979.88;;;-2.78;63.61
12949;BME280;6539;49.476;8.484;2022-12-18T08:06:04;101978.88;;;-2.87;63.64
12949;BME280;6539;49.476;8.484;2022-12-18T08:08:31;101976.44;;;-2.88;63.44
12949;BME280;6539;49.476;8.484;2022-12-18T08:10:57;101977.47;;;-2.84;63.33
12949;BME280;6539;49.476;8.484;2022-12-18T08:13:24;101985.22;;;-2.78;62.94
12949;BME280;6539;49.476;8.484;2022-12-18T08:16:17;101983.94;;;-2.80;62.81
12949;BME280;6539;49.476;8.484;2022-12-18T08:18:42;101990.09;;;-2.80;62.85
12949;BME280;6539;49.476;8.484;2022-12-18T08:21:14;101997.84;;;-2.73;62.83
12949;BME280;6539;49.476;8.484;2022-12-18T08:23:41;101990.06;;;-2.70;62.43
12949;BME280;6539;49.476;8.484;2022-12-18T08:26:13;101994.63;;;-2.70;62.07
12949;BME280;6539;49.476;8.484;2022-12-18T08:28:40;101992.22;;;-2.72;62.66
12949;BME280;6539;49.476;8.484;2022-12-18T08:31:09;101994.03;;;-2.67;62.58
12949;BME280;6539;49.476;8.484;2022-12-18T08:33:36;101994.59;;;-2.65;61.89
12949;BME280;6539;49.476;8.484;2022-12-18T08:36:03;101977.09;;;-2.63;62.17
12949;BME280;6539;49.476;8.484;2022-12-18T08:38:29;101967.47;;;-2.69;61.93
12949;BME280;6539;49.476;8.484;2022-12-18T08:41:09;101965.56;;;-2.68;62.26
12949;BME280;6539;49.476;8.484;2022-12-18T08:43:38;101963.41;;;-2.66;62.30
12949;BME280;6539;49.476;8.484;2022-12-18T08:46:25;101961.22;;;-2.59;62.03
12949;BME280;6539;49.476;8.484;2022-12-18T08:48:53;101961.19;;;-2.54;62.13
12949;BME280;6539;49.476;8.484;2022-12-18T08:51:20;101964.16;;;-2.56;61.93
12949;BME280;6539;49.476;8.484;2022-12-18T08:53:47;101954.16;;;-2.50;62.30
12949;BME280;6539;49.476;8.484;2022-12-18T08:56:14;101943.91;;;-2.43;62.19
12949;BME280;6539;49.476;8.484;2022-12-18T08:58:42;101946.56;;;-2.38;61.71
12949;BME280;6539;49.476;8.484;2022-12-18T09:01:11;101933.03;;;-2.28;61.71
12949;BME280;6539;49.476;8.484;2022-12-18T09:03:38;101938.91;;;-2.26;61.97
12949;BME280;6539;49.476;8.484;2022-12-18T09:06:13;101935.19;;;-2.30;61.89
12949;BME280;6539;49.476;8.484;2022-12-18T09:08:40;101931.88;;;-2.22;61.93
12949;BME280;6539;49.476;8.484;2022-12-18T09:11:27;101942.28;;;-2.10;61.46
12949;BME280;6539;49.476;8.484;2022-12-18T09:13:56;101942.78;;;-2.03;61.21
12949;BME280;6539;49.476;8.484;2022-12-18T09:16:25;101936.41;;;-1.84;60.81
12949;BME280;6539;49.476;8.484;2022-12-18T09:18:51;101932.88;;;-1.56;60.06
12949;BME280;6539;49.476;8.484;2022-12-18T09:21:20;101932.78;;;-1.27;59.59
12949;BME280;6539;49.476;8.484;2022-12-18T09:23:51;101945.16;;;-1.02;58.00
12949;BME280;6539;49.476;8.484;2022-12-18T09:26:17;101942.59;;;-0.75;57.61
12949;BME280;6539;49.476;8.484;2022-12-18T09:28:43;101944.63;;;-0.48;56.85
12949;BME280;6539;49.476;8.484;2022-12-18T09:31:12;101937.78;;;-0.09;55.56
12949;BME280;6539;49.476;8.484;2022-12-18T09:33:38;101947.66;;;0.28;54.19
12949;BME280;6539;49.476;8.484;2022-12-18T09:36:09;101953.69;;;0.66;54.16
12949;BME280;6539;49.476;8.484;2022-12-18T09:38:36;101956.28;;;0.85;52.91
12949;BME280;6539;49.476;8.484;2022-12-18T09:43:57;101963.91;;;1.32;54.80
12949;BME280;6539;49.476;8.484;2022-12-18T09:46:30;101965.88;;;1.76;53.35
12949;BME280;6539;49.476;8.484;2022-12-18T09:49:01;101973.47;;;2.18;53.47
12949;BME280;6539;49.476;8.484;2022-12-18T09:52:14;101981.50;;;2.54;50.76
12949;BME280;6539;49.476;8.484;2022-12-18T09:54:42;101987.63;;;2.76;51.33
12949;BME280;6539;49.476;8.484;2022-12-18T09:57:17;101994.00;;;2.80;49.84
12949;BME280;6539;49.476;8.484;2022-12-18T09:59:51;101993.38;;;2.75;49.94
12949;BME280;6539;49.476;8.484;2022-12-18T10:02:25;101992.97;;;2.98;50.09
12949;BME280;6539;49.476;8.484;2022-12-18T10:05:11;101983.22;;;2.89;48.70
12949;BME280;6539;49.476;8.484;2022-12-18T10:08:00;101970.81;;;3.05;49.82
12949;BME280;6539;49.476;8.484;2022-12-18T10:10:40;101966.56;;;3.30;48.83
12949;BME280;6539;49.476;8.484;2022-12-18T10:27:43;101974.25;;;3.53;45.97
12949;BME280;6539;49.476;8.484;2022-12-18T10:30:17;101967.03;;;3.40;46.48
12949;BME280;6539;49.476;8.484;2022-12-18T10:32:43;101966.69;;;3.16;46.62
12949;BME280;6539;49.476;8.484;2022-12-18T10:35:26;101959.53;;;3.29;47.30
12949;BME280;6539;49.476;8.484;2022-12-18T10:41:00;101940.84;;;3.36;46.83
12949;BME280;6539;49.476;8.484;2022-12-18T10:43:32;101934.94;;;3.34;47.13
12949;BME280;6539;49.476;8.484;2022-12-18T10:46:11;101933.91;;;2.95;47.42
12949;BME280;6539;49.476;8.484;2022-12-18T10:54:21;101936.81;;;2.90;48.52
12949;BME280;6539;49.476;8.484;2022-12-18T10:56:48;101941.47;;;3.16;48.14
12949;BME280;6539;49.476;8.484;2022-12-18T10:59:19;101940.38;;;3.25;47.62
12949;BME280;6539;49.476;8.484;2022-12-18T11:01:58;101938.44;;;3.26;47.22
12949;BME280;6539;49.476;8.484;2022-12-18T11:04:28;101937.47;;;3.47;47.47
12949;BME280;6539;49.476;8.484;2022-12-18T11:06:59;101937.00;;;3.79;46.48
12949;BME280;6539;49.476;8.484;2022-12-18T11:09:34;101949.28;;;3.94;45.63
12949;BME280;6539;49.476;8.484;2022-12-18T11:12:15;101952.31;;;3.84;45.71
12949;BME280;6539;49.476;8.484;2022-12-18T11:14:46;101948.34;;;3.30;46.71
12949;BME280;6539;49.476;8.484;2022-12-18T11:17:31;101946.91;;;3.33;46.97
12949;BME280;6539;49.476;8.484;2022-12-18T11:20:20;101939.72;;;3.54;46.99
12949;BME280;6539;49.476;8.484;2022-12-18T11:23:12;101948.34;;;3.56;47.10
12949;BME280;6539;49.476;8.484;2022-12-18T11:25:59;101945.94;;;3.37;47.25
12949;BME280;6539;49.476;8.484;2022-12-18T11:28:40;101939.56;;;3.33;47.44
12949;BME280;6539;49.476;8.484;2022-12-18T11:31:27;101936.50;;;3.00;47.80
12949;BME280;6539;49.476;8.484;2022-12-18T11:34:00;101936.19;;;3.10;48.20
12949;BME280;6539;49.476;8.484;2022-12-18T11:36:37;101937.13;;;2.97;49.02
12949;BME280;6539;49.476;8.484;2022-12-18T11:39:18;101941.28;;;2.95;48.10
12949;BME280;6539;49.476;8.484;2022-12-18T11:42:05;101945.44;;;2.53;49.60
12949;BME280;6539;49.476;8.484;2022-12-18T11:44:47;101935.69;;;2.44;50.03
12949;BME280;6539;49.476;8.484;2022-12-18T11:47:49;101925.06;;;2.56;50.37
12949;BME280;6539;49.476;8.484;2022-12-18T11:50:46;101921.69;;;2.50;50.07
12949;BME280;6539;49.476;8.484;2022-12-18T11:53:14;101922.75;;;2.41;50.60
12949;BME280;6539;49.476;8.484;2022-12-18T11:56:49;101913.34;;;2.38;51.55
12949;BME280;6539;49.476;8.484;2022-12-18T11:59:31;101916.47;;;2.23;51.65
12949;BME280;6539;49.476;8.484;2022-12-18T12:16:51;101914.66;;;1.57;53.05
12949;BME280;6539;49.476;8.484;2022-12-18T12:19:41;101915.38;;;1.13;54.77
12949;BME280;6539;49.476;8.484;2022-12-18T12:23:06;101883.56;;;1.32;54.61
12949;BME280;6539;49.476;8.484;2022-12-18T12:25:44;101886.59;;;1.53;54.29
12949;BME280;6539;49.476;8.484;2022-12-18T12:28:19;101901.28;;;1.61;54.96
12949;BME280;6539;49.476;8.484;2022-12-18T12:39:42;101903.31;;;2.08;55.17
12949;BME280;6539;49.476;8.484;2022-12-18T12:42:42;101904.28;;;2.12;54.67
12949;BME280;6539;49.476;8.484;2022-12-18T12:45:39;101889.66;;;2.13;54.84
12949;BME280;6539;49.476;8.484;2022-12-18T12:50:48;101885.53;;;2.15;55.67
12949;BME280;6539;49.476;8.484;2022-12-18T12:53:29;101887.41;;;2.06;56.68
12949;BME280;6539;49.476;8.484;2022-12-18T12:55:59;101885.94;;;2.00;56.58
12949;BME280;6539;49.476;8.484;2022-12-18T13:01:36;101868.84;;;1.91;56.49
12949;BME280;6539;49.476;8.484;2022-12-18T13:09:23;101854.13;;;1.84;56.42
12949;BME280;6539;49.476;8.484;2022-12-18T13:11:51;101848.00;;;1.70;56.92
12949;BME280;6539;49.476;8.484;2022-12-18T13:14:40;101839.41;;;1.68;57.42
12949;BME280;6539;49.476;8.484;2022-12-18T13:20:33;101833.16;;;1.59;58.63
12949;BME280;6539;49.476;8.484;2022-12-18T13:22:59;101842.34;;;1.58;58.39
12949;BME280;6539;49.476;8.484;2022-12-18T13:25:36;101845.44;;;1.65;58.59
12949;BME280;6539;49.476;8.484;2022-12-18T13:28:16;101852.13;;;1.67;58.34
12949;BME280;6539;49.476;8.484;2022-12-18T13:41:10;101830.28;;;1.55;59.55
12949;BME280;6539;49.476;8.484;2022-12-18T13:43:49;101828.34;;;1.55;59.35
12949;BME280;6539;49.476;8.484;2022-12-18T13:49:02;101824.66;;;1.51;59.46
12949;BME280;6539;49.476;8.484;2022-12-18T13:51:32;101824.00;;;1.46;59.39
12949;BME280;6539;49.476;8.484;2022-12-18T13:54:17;101825.28;;;1.48;59.80
12949;BME280;6539;49.476;8.484;2022-12-18T13:56:46;101817.28;;;1.43;59.62
12949;BME280;6539;49.476;8.484;2022-12-18T13:59:19;101822.34;;;1.36;59.80
12949;BME280;6539;49.476;8.484;2022-12-18T14:01:59;101824.91;;;1.41;59.59
12949;BME280;6539;49.476;8.484;2022-12-18T14:04:37;101819.69;;;1.45;59.55
12949;BME280;6539;49.476;8.484;2022-12-18T14:07:17;101828.50;;;1.50;59.65
12949;BME280;6539;49.476;8.484;2022-12-18T14:09:49;101824.91;;;1.41;59.29
12949;BME280;6539;49.476;8.484;2022-12-18T14:12:34;101822.00;;;1.29;60.18
12949;BME280;6539;49.476;8.484;2022-12-18T14:18:01;101813.66;;;1.04;59.48
12949;BME280;6539;49.476;8.484;2022-12-18T14:20:31;101809.53;;;1.06;59.67
12949;BME280;6539;49.476;8.484;2022-12-18T14:23:02;101811.00;;;1.12;60.18
12949;BME280;6539;49.476;8.484;2022-12-18T14:25:32;101814.41;;;1.18;60.07
12949;BME280;6539;49.476;8.484;2022-12-18T14:30:39;101820.13;;;1.38;59.45
12949;BME280;6539;49.476;8.484;2022-12-18T14:33:15;101816.91;;;1.36;59.14
12949;BME280;6539;49.476;8.484;2022-12-18T14:36:01;101818.69;;;1.41;59.20
12949;BME280;6539;49.476;8.484;2022-12-18T14:38:38;101824.91;;;1.41;58.99
12949;BME280;6539;49.476;8.484;2022-12-18T14:41:17;101828.13;;;1.43;58.83
12949;BME280;6539;49.476;8.484;2022-12-18T14:43:47;101824.44;;;1.39;58.67
12949;BME280;6539;49.476;8.484;2022-12-18T14:48:54;101817.28;;;1.43;58.82
12949;BME280;6539;49.476;8.484;2022-12-18T14:51:27;101817.47;;;1.47;58.72
12949;BME280;6539;49.476;8.484;2022-12-18T14:54:19;101821.28;;;1.46;58.71
12949;BME280;6539;49.476;8.484;2022-12-18T14:57:29;101810.09;;;1.39;59.08
12949;BME280;6539;49.476;8.484;2022-12-18T15:00:16;101806.31;;;1.40;58.99
12949;BME280;6539;49.476;8.484;2022-12-18T15:02:55;101795.47;;;1.40;59.24
12949;BME280;6539;49.476;8.484;2022-12-18T15:05:30;101795.72;;;1.30;59.49
12949;BME280;6539;49.476;8.484;2022-12-18T15:08:00;101794.00;;;1.34;59.62
12949;BME280;6539;49.476;8.484;2022-12-18T15:10:35;101802.47;;;1.41;59.44
12949;BME280;6539;49.476;8.484;2022-12-18T15:13:25;101804.56;;;1.44;59.00
12949;BME280;6539;49.476;8.484;2022-12-18T15:15:54;101794.78;;;1.34;59.29
12949;BME280;6539;49.476;8.484;2022-12-18T15:18:30;101799.72;;;1.32;59.88
12949;BME280;6539;49.476;8.484;2022-12-18T15:21:11;101795.09;;;1.33;59.63